Time;durP1;ratioP1;P1;durP2;ratioP2;P2;SDS_P1;SDS_P2;PMS_P1;PMS_P2;Temp;Humidity;BMP_temperature;BMP_pressure;BME280_temperature;BME280_humidity;BME280_pressure;Samples;Min_cycle;Max_cycle;Signal;HPM_P1;HPM_P2
2021/11/14 00:02:06;;;;;;;;;;;8.70;99.90;;;;;;5018168;28;19921;-65
2021/11/14 00:04:31;;;;;;;;;;;8.70;99.90;;;;;;5021347;28;20263;-66
2021/11/14 00:06:57;;;;;;;;;;;8.60;99.90;;;;;;5025304;23;19925;-71
2021/11/14 00:09:22;;;;;;;;;;;8.50;99.90;;;;;;5019880;28;19964;-70
2021/11/14 00:11:48;;;;;;;;;;;8.40;99.90;;;;;;5025052;28;19963;-70
2021/11/14 00:14:13;;;;;;;;;;;8.40;99.90;;;;;;5014621;28;19968;-70
2021/11/14 00:16:39;;;;;;;;;;;8.40;99.90;;;;;;5013036;28;19975;-70
2021/11/14 00:19:04;;;;;;;;;;;8.40;99.90;;;;;;4995195;28;20347;-70
2021/11/14 00:21:30;;;;;;;;;;;8.40;99.90;;;;;;4994684;28;19918;-70
2021/11/14 00:23:56;;;;;;;;;;;8.40;99.90;;;;;;4994956;28;20008;-70
2021/11/14 00:26:22;;;;;;;;;;;8.40;99.90;;;;;;4994448;28;20020;-70
2021/11/14 00:28:47;;;;;;;;;;;8.40;99.90;;;;;;4995470;28;19958;-70
2021/11/14 00:31:15;;;;;;;;;;;8.40;99.90;;;;;;4979612;28;20468;-70
2021/11/14 00:33:43;;;;;;;;;;;8.40;99.90;;;;;;4995916;28;20368;-70
2021/11/14 00:36:09;;;;;;;;;;;8.40;99.90;;;;;;4997743;28;20391;-70
2021/11/14 00:38:35;;;;;;;;;;;8.40;99.90;;;;;;4994629;28;19917;-70
2021/11/14 00:41:01;;;;;;;;;;;8.40;99.90;;;;;;4994817;28;19923;-68
2021/11/14 00:43:26;;;;;;;;;;;8.40;99.90;;;;;;4996435;28;19914;-71
2021/11/14 00:45:52;;;;;;;;;;;8.40;99.90;;;;;;4995553;28;20448;-71
2021/11/14 00:48:17;;;;;;;;;;;8.40;99.90;;;;;;4996933;28;19961;-70
2021/11/14 00:50:44;;;;;;;;;;;8.40;99.90;;;;;;4993298;28;19914;-70
2021/11/14 00:53:14;;;;;;;;;;;8.40;99.90;;;;;;4996323;28;19949;-70
2021/11/14 00:55:40;;;;;;;;;;;8.30;99.90;;;;;;4992264;28;19914;-70
2021/11/14 00:58:05;;;;;;;;;;;8.30;99.90;;;;;;4995646;28;20013;-70
2021/11/14 01:00:31;;;;;;;;;;;8.30;99.90;;;;;;4995557;28;19918;-70
2021/11/14 01:02:57;;;;;;;;;;;8.30;99.90;;;;;;4995628;28;19917;-70
2021/11/14 01:05:23;;;;;;;;;;;8.30;99.90;;;;;;4994816;28;19953;-70
2021/11/14 01:07:49;;;;;;;;;;;8.30;99.90;;;;;;4978146;28;19920;-70
2021/11/14 01:10:16;;;;;;;;;;;8.30;99.90;;;;;;4988964;28;20496;-70
2021/11/14 01:12:42;;;;;;;;;;;8.20;99.90;;;;;;4992830;28;19921;-70
2021/11/14 01:15:08;;;;;;;;;;;8.20;99.90;;;;;;4994572;28;20423;-70
2021/11/14 01:17:38;;;;;;;;;;;8.20;99.90;;;;;;4995385;28;19917;-70
2021/11/14 01:20:06;;;;;;;;;;;8.20;99.90;;;;;;4978939;28;19918;-70
2021/11/14 01:22:31;;;;;;;;;;;8.10;99.90;;;;;;4988578;28;19924;-70
2021/11/14 01:24:57;;;;;;;;;;;8.20;99.90;;;;;;4996204;28;19922;-70
2021/11/14 01:27:22;;;;;;;;;;;8.10;99.90;;;;;;4995728;28;19918;-70
2021/11/14 01:29:48;;;;;;;;;;;8.10;99.90;;;;;;4996384;28;19936;-70
2021/11/14 01:32:13;;;;;;;;;;;8.10;99.90;;;;;;4995417;28;19929;-71
2021/11/14 01:34:38;;;;;;;;;;;8.10;99.90;;;;;;4978196;28;19914;-70
2021/11/14 01:37:04;;;;;;;;;;;8.10;99.90;;;;;;4997311;28;19921;-70
2021/11/14 01:39:31;;;;;;;;;;;8.10;99.90;;;;;;4993548;28;19925;-70
2021/11/14 01:41:57;;;;;;;;;;;8.10;99.90;;;;;;4975740;28;19918;-70
2021/11/14 01:44:22;;;;;;;;;;;8.10;99.90;;;;;;4996516;28;19940;-70
2021/11/14 01:46:48;;;;;;;;;;;8.00;99.90;;;;;;4993768;28;20297;-70
2021/11/14 01:49:13;;;;;;;;;;;8.00;99.90;;;;;;4994340;28;20482;-71
2021/11/14 01:51:38;;;;;;;;;;;8.00;99.90;;;;;;4995954;28;20333;-71
2021/11/14 01:54:04;;;;;;;;;;;8.00;99.90;;;;;;4979124;28;20381;-70
2021/11/14 01:56:30;;;;;;;;;;;7.90;99.90;;;;;;4996319;28;20008;-71
2021/11/14 01:58:55;;;;;;;;;;;7.90;99.90;;;;;;4996511;28;20254;-71
2021/11/14 02:01:23;;;;;;;;;;;7.80;99.90;;;;;;4992604;28;19923;-71
2021/11/14 02:03:50;;;;;;;;;;;7.80;99.90;;;;;;4995187;28;19917;-71
2021/11/14 02:06:16;;;;;;;;;;;7.70;99.90;;;;;;4993741;28;20472;-70
2021/11/14 02:08:42;;;;;;;;;;;7.70;99.90;;;;;;4996494;28;19925;-70
2021/11/14 02:11:09;;;;;;;;;;;7.70;99.90;;;;;;4994269;28;19913;-71
2021/11/14 02:13:35;;;;;;;;;;;7.70;99.90;;;;;;4995243;28;19923;-71
2021/11/14 02:16:00;;;;;;;;;;;7.70;99.90;;;;;;4998931;28;19921;-71
2021/11/14 02:18:26;;;;;;;;;;;7.70;99.90;;;;;;5000291;28;19921;-71
2021/11/14 02:20:52;;;;;;;;;;;7.80;99.90;;;;;;4997919;28;20388;-71
2021/11/14 02:23:20;;;;;;;;;;;7.80;99.90;;;;;;4994938;28;19920;-71
2021/11/14 02:25:47;;;;;;;;;;;7.80;99.90;;;;;;4996832;28;19957;-71
2021/11/14 02:28:13;;;;;;;;;;;7.80;99.90;;;;;;4998816;28;19961;-71
2021/11/14 02:30:39;;;;;;;;;;;7.80;99.90;;;;;;4998420;28;19914;-71
2021/11/14 02:33:05;;;;;;;;;;;7.80;99.90;;;;;;4998440;28;20000;-71
2021/11/14 02:35:30;;;;;;;;;;;7.80;99.90;;;;;;4997962;28;19914;-71
2021/11/14 02:37:56;;;;;;;;;;;7.70;99.90;;;;;;4996620;28;19983;-71
2021/11/14 02:40:21;;;;;;;;;;;7.80;99.90;;;;;;4997889;28;19921;-71
2021/11/14 02:42:47;;;;;;;;;;;7.70;99.90;;;;;;4997591;28;19960;-71
2021/11/14 02:45:14;;;;;;;;;;;7.70;99.90;;;;;;4998706;28;20486;-71
2021/11/14 02:47:39;;;;;;;;;;;7.70;99.90;;;;;;4998364;28;19961;-71
2021/11/14 02:50:06;;;;;;;;;;;7.70;99.90;;;;;;4998699;28;19952;-71
2021/11/14 02:52:31;;;;;;;;;;;7.70;99.90;;;;;;4996824;28;19925;-71
2021/11/14 02:54:57;;;;;;;;;;;7.70;99.90;;;;;;4998363;28;19917;-70
2021/11/14 02:57:22;;;;;;;;;;;7.70;99.90;;;;;;4995577;28;19917;-70
2021/11/14 02:59:48;;;;;;;;;;;7.60;99.90;;;;;;4998710;28;20008;-71
2021/11/14 03:02:14;;;;;;;;;;;7.60;99.90;;;;;;4995821;28;20336;-71
2021/11/14 03:04:40;;;;;;;;;;;7.60;99.90;;;;;;4981748;28;19917;-71
2021/11/14 03:07:05;;;;;;;;;;;7.60;99.90;;;;;;4998513;28;20408;-71
2021/11/14 03:09:33;;;;;;;;;;;7.50;99.90;;;;;;4998712;28;19913;-71
2021/11/14 03:11:59;;;;;;;;;;;7.50;99.90;;;;;;4997695;28;19918;-71
2021/11/14 03:14:24;;;;;;;;;;;7.50;99.90;;;;;;4996645;28;20036;-71
2021/11/14 03:16:50;;;;;;;;;;;7.50;99.90;;;;;;4997904;28;20432;-71
2021/11/14 03:19:15;;;;;;;;;;;7.50;99.90;;;;;;4998214;28;19922;-71
2021/11/14 03:21:41;;;;;;;;;;;7.50;99.90;;;;;;4999954;28;20277;-71
2021/11/14 03:24:07;;;;;;;;;;;7.50;99.90;;;;;;4997753;28;20787;-71
2021/11/14 03:26:33;;;;;;;;;;;7.50;99.90;;;;;;4996112;28;19948;-71
2021/11/14 03:28:58;;;;;;;;;;;7.50;99.90;;;;;;4999188;28;20440;-71
2021/11/14 03:31:25;;;;;;;;;;;7.50;99.90;;;;;;4980088;28;20355;-71
2021/11/14 03:33:50;;;;;;;;;;;7.50;99.90;;;;;;4995415;28;19918;-71
2021/11/14 03:36:16;;;;;;;;;;;7.50;99.90;;;;;;4998609;28;19959;-71
2021/11/14 03:38:44;;;;;;;;;;;7.50;99.90;;;;;;4996977;28;20428;-69
2021/11/14 03:41:10;;;;;;;;;;;7.50;99.90;;;;;;4998628;28;19920;-68
2021/11/14 03:43:36;;;;;;;;;;;7.50;99.90;;;;;;4997714;28;19918;-69
2021/11/14 03:46:03;;;;;;;;;;;7.50;99.90;;;;;;4995284;28;19990;-69
2021/11/14 03:48:29;;;;;;;;;;;7.40;99.90;;;;;;4997381;28;19913;-69
2021/11/14 03:50:54;;;;;;;;;;;7.40;99.90;;;;;;4995233;28;19918;-69
2021/11/14 03:53:20;;;;;;;;;;;7.40;99.90;;;;;;4997544;28;19976;-69
2021/11/14 03:55:46;;;;;;;;;;;7.40;99.90;;;;;;4996858;28;20345;-69
2021/11/14 03:58:11;;;;;;;;;;;7.40;99.90;;;;;;4996634;28;20305;-69
2021/11/14 04:00:39;;;;;;;;;;;7.40;99.90;;;;;;4997134;28;20613;-71
2021/11/14 04:03:04;;;;;;;;;;;7.40;99.90;;;;;;4994215;28;19936;-71
2021/11/14 04:05:30;;;;;;;;;;;7.40;99.90;;;;;;4997368;28;20472;-71
2021/11/14 04:07:56;;;;;;;;;;;7.40;99.90;;;;;;4997236;28;19996;-71
2021/11/14 04:10:21;;;;;;;;;;;7.40;99.90;;;;;;4981226;28;20364;-71
2021/11/14 04:12:47;;;;;;;;;;;7.40;99.90;;;;;;4996171;28;19921;-71
2021/11/14 04:15:13;;;;;;;;;;;7.40;99.90;;;;;;4998233;28;20450;-71
2021/11/14 04:17:39;;;;;;;;;;;7.40;99.90;;;;;;4981543;28;20288;-71
2021/11/14 04:20:06;;;;;;;;;;;7.50;99.90;;;;;;4996054;28;19913;-71
2021/11/14 04:22:31;;;;;;;;;;;7.50;99.90;;;;;;4994284;28;19929;-71
2021/11/14 04:24:57;;;;;;;;;;;7.50;99.90;;;;;;4999122;28;19914;-71
2021/11/14 04:27:22;;;;;;;;;;;7.50;99.90;;;;;;4996998;28;19920;-71
2021/11/14 04:29:48;;;;;;;;;;;7.50;99.90;;;;;;4998315;28;20270;-71
2021/11/14 04:32:13;;;;;;;;;;;7.50;99.90;;;;;;4994495;28;20008;-71
2021/11/14 04:34:40;;;;;;;;;;;7.50;99.90;;;;;;4996110;28;19917;-71
2021/11/14 04:37:06;;;;;;;;;;;7.60;99.90;;;;;;4995029;28;19917;-71
2021/11/14 04:39:32;;;;;;;;;;;7.60;99.90;;;;;;4996759;28;19981;-71
2021/11/14 04:41:57;;;;;;;;;;;7.60;99.90;;;;;;4980321;28;19913;-71
2021/11/14 04:44:24;;;;;;;;;;;7.70;99.90;;;;;;4995049;28;19921;-71
2021/11/14 04:46:50;;;;;;;;;;;7.70;99.90;;;;;;4996797;28;19917;-71
2021/11/14 04:49:19;;;;;;;;;;;7.70;99.90;;;;;;4964007;28;19921;-71
2021/11/14 04:51:45;;;;;;;;;;;7.70;99.90;;;;;;4997901;28;20434;-71
2021/11/14 04:54:10;;;;;;;;;;;7.70;99.90;;;;;;4994603;28;19917;-71
2021/11/14 04:56:36;;;;;;;;;;;7.70;99.90;;;;;;4996856;28;20663;-71
2021/11/14 04:59:01;;;;;;;;;;;7.70;99.90;;;;;;4996923;28;19937;-71
2021/11/14 05:01:27;;;;;;;;;;;7.70;99.90;;;;;;4997215;28;20004;-71
2021/11/14 05:03:52;;;;;;;;;;;7.70;99.90;;;;;;4995382;28;19961;-71
2021/11/14 05:06:17;;;;;;;;;;;7.70;99.90;;;;;;4995353;28;19925;-71
2021/11/14 05:08:43;;;;;;;;;;;7.70;99.90;;;;;;4993479;28;19914;-71
2021/11/14 05:11:08;;;;;;;;;;;7.70;99.90;;;;;;4996354;28;20036;-71
2021/11/14 05:13:34;;;;;;;;;;;7.70;99.90;;;;;;4993917;28;19965;-71
2021/11/14 05:15:59;;;;;;;;;;;7.70;99.90;;;;;;4998310;28;19922;-71
2021/11/14 05:18:25;;;;;;;;;;;7.70;99.90;;;;;;4997017;28;19923;-71
2021/11/14 05:20:50;;;;;;;;;;;7.70;99.90;;;;;;4979045;28;19920;-71
2021/11/14 05:23:16;;;;;;;;;;;7.70;99.90;;;;;;4995935;28;19929;-71
2021/11/14 05:25:42;;;;;;;;;;;7.60;99.90;;;;;;4995960;28;20261;-71
2021/11/14 05:28:08;;;;;;;;;;;7.70;99.90;;;;;;4996860;28;19968;-71
2021/11/14 05:30:33;;;;;;;;;;;7.70;99.90;;;;;;4997092;28;20447;-71
2021/11/14 05:32:59;;;;;;;;;;;7.70;99.90;;;;;;4993240;28;19918;-71
2021/11/14 05:35:24;;;;;;;;;;;7.80;99.90;;;;;;4996899;28;19914;-71
2021/11/14 05:37:50;;;;;;;;;;;7.80;99.90;;;;;;4996667;28;19949;-71
2021/11/14 05:40:15;;;;;;;;;;;7.70;99.90;;;;;;4995827;28;20496;-71
2021/11/14 05:42:41;;;;;;;;;;;7.70;99.90;;;;;;4992783;28;20389;-71
2021/11/14 05:45:06;;;;;;;;;;;7.70;99.90;;;;;;4997467;28;19925;-71
2021/11/14 05:47:32;;;;;;;;;;;7.70;99.90;;;;;;4996540;28;20004;-71
2021/11/14 05:49:57;;;;;;;;;;;7.70;99.90;;;;;;4999986;28;19938;-71
2021/11/14 05:52:23;;;;;;;;;;;7.70;99.90;;;;;;5000339;28;19964;-71
2021/11/14 05:54:48;;;;;;;;;;;7.70;99.90;;;;;;5001536;28;19949;-71
2021/11/14 05:57:15;;;;;;;;;;;7.70;99.90;;;;;;5000704;28;19988;-71
2021/11/14 06:00:25;;;;;;;;;;;7.80;99.90;;;;;;4998775;28;20479;-71
2021/11/14 06:02:38;;;;;;;;;;;7.70;99.90;;;;;;4991842;28;19920;-71
2021/11/14 06:05:13;;;;;;;;;;;7.70;99.90;;;;;;4999442;28;20292;-71
2021/11/14 06:07:39;;;;;;;;;;;7.70;99.90;;;;;;5000321;28;19913;-71
2021/11/14 06:10:04;;;;;;;;;;;7.60;99.90;;;;;;4998974;28;19964;-71
2021/11/14 06:12:30;;;;;;;;;;;7.60;99.90;;;;;;4998918;28;19989;-71
2021/11/14 06:14:56;;;;;;;;;;;7.60;99.90;;;;;;4998180;28;19922;-74
2021/11/14 06:17:21;;;;;;;;;;;7.70;99.90;;;;;;4999424;28;19971;-74
2021/11/14 06:19:47;;;;;;;;;;;7.70;99.90;;;;;;5000982;28;19960;-74
2021/11/14 06:22:13;;;;;;;;;;;7.70;99.90;;;;;;4998700;28;19922;-74
2021/11/14 06:24:39;;;;;;;;;;;7.70;99.90;;;;;;4999175;28;19928;-74
2021/11/14 06:27:04;;;;;;;;;;;7.70;99.90;;;;;;4979995;28;20005;-74
2021/11/14 06:29:30;;;;;;;;;;;7.70;99.90;;;;;;5015596;28;20308;-74
2021/11/14 06:31:55;;;;;;;;;;;7.70;99.90;;;;;;4996779;28;20365;-74
2021/11/14 06:34:20;;;;;;;;;;;7.70;99.90;;;;;;4999161;28;19918;-73
2021/11/14 06:36:46;;;;;;;;;;;7.60;99.90;;;;;;4998790;28;20373;-74
2021/11/14 06:39:12;;;;;;;;;;;7.70;99.90;;;;;;4998766;28;19917;-74
2021/11/14 06:41:37;;;;;;;;;;;7.60;99.90;;;;;;4990363;28;19989;-74
2021/11/14 06:44:02;;;;;;;;;;;7.70;99.90;;;;;;4998391;28;19917;-73
2021/11/14 06:46:28;;;;;;;;;;;7.60;99.90;;;;;;4998750;28;19922;-74
2021/11/14 06:48:53;;;;;;;;;;;7.60;99.90;;;;;;4998045;28;20399;-74
2021/11/14 06:51:19;;;;;;;;;;;7.60;99.90;;;;;;4996486;28;20756;-70
2021/11/14 06:53:44;;;;;;;;;;;7.50;99.90;;;;;;4997318;28;20033;-70
2021/11/14 06:56:10;;;;;;;;;;;7.50;99.90;;;;;;4998486;28;19921;-70
2021/11/14 06:58:35;;;;;;;;;;;7.50;99.90;;;;;;4997564;28;20337;-70
2021/11/14 07:01:01;;;;;;;;;;;7.50;99.90;;;;;;4999284;28;19910;-70
2021/11/14 07:03:26;;;;;;;;;;;7.50;99.90;;;;;;5012870;28;19917;-72
2021/11/14 07:05:52;;;;;;;;;;;7.50;99.90;;;;;;4998917;28;20013;-75
2021/11/14 07:08:17;;;;;;;;;;;7.50;99.90;;;;;;4994287;28;20261;-75
2021/11/14 07:10:43;;;;;;;;;;;7.50;99.90;;;;;;4998025;28;20606;-75
2021/11/14 07:13:09;;;;;;;;;;;7.50;99.90;;;;;;4998609;28;19957;-74
2021/11/14 07:15:34;;;;;;;;;;;7.50;99.90;;;;;;4999555;28;19928;-75
2021/11/14 07:18:00;;;;;;;;;;;7.50;99.90;;;;;;4980552;28;19913;-74
2021/11/14 07:20:25;;;;;;;;;;;7.50;99.90;;;;;;4999665;28;19917;-75
2021/11/14 07:22:51;;;;;;;;;;;7.50;99.90;;;;;;4998962;28;19910;-75
2021/11/14 07:25:18;;;;;;;;;;;7.50;99.90;;;;;;4998537;28;19922;-76
2021/11/14 07:27:45;;;;;;;;;;;7.50;99.90;;;;;;4998590;28;19918;-76
2021/11/14 07:30:12;;;;;;;;;;;7.50;99.90;;;;;;4996780;28;20771;-76
2021/11/14 07:32:40;;;;;;;;;;;7.50;99.90;;;;;;4996299;28;19917;-76
2021/11/14 07:35:07;;;;;;;;;;;7.50;99.90;;;;;;4998939;28;20530;-71
2021/11/14 07:37:32;;;;;;;;;;;7.50;99.90;;;;;;4999176;28;19984;-74
2021/11/14 07:39:58;;;;;;;;;;;7.50;99.90;;;;;;4980896;28;20522;-71
2021/11/14 07:42:23;;;;;;;;;;;7.60;99.90;;;;;;4998003;28;20846;-72
2021/11/14 07:44:49;;;;;;;;;;;7.60;99.90;;;;;;4997947;28;19917;-74
2021/11/14 07:47:14;;;;;;;;;;;7.60;99.90;;;;;;4995576;28;19909;-76
2021/11/14 07:49:39;;;;;;;;;;;7.60;99.90;;;;;;4993832;28;19918;-70
2021/11/14 07:52:05;;;;;;;;;;;7.60;99.90;;;;;;4977134;28;19917;-74
2021/11/14 07:54:30;;;;;;;;;;;7.70;99.90;;;;;;4998596;28;19971;-75
2021/11/14 07:56:56;;;;;;;;;;;7.70;99.90;;;;;;4996006;28;20284;-75
2021/11/14 07:59:21;;;;;;;;;;;7.70;99.90;;;;;;4998349;28;20361;-75
2021/11/14 08:01:47;;;;;;;;;;;7.70;99.90;;;;;;4998950;28;20435;-75
2021/11/14 08:04:13;;;;;;;;;;;7.70;99.90;;;;;;4980593;28;20015;-75
2021/11/14 08:06:39;;;;;;;;;;;7.70;99.90;;;;;;4998030;28;19925;-75
2021/11/14 08:09:06;;;;;;;;;;;7.70;99.90;;;;;;4997825;28;22869;-75
2021/11/14 08:11:33;;;;;;;;;;;7.80;99.90;;;;;;4998557;28;19920;-75
2021/11/14 08:13:58;;;;;;;;;;;7.80;99.90;;;;;;4999967;28;19928;-75
2021/11/14 08:16:24;;;;;;;;;;;7.80;99.90;;;;;;5000440;28;19918;-75
2021/11/14 08:18:49;;;;;;;;;;;7.80;99.90;;;;;;5000337;28;19964;-75
2021/11/14 08:21:15;;;;;;;;;;;7.80;99.90;;;;;;4996604;28;19964;-75
2021/11/14 08:23:40;;;;;;;;;;;7.80;99.90;;;;;;5014504;28;20024;-75
2021/11/14 08:26:06;;;;;;;;;;;7.80;99.90;;;;;;5000029;28;19914;-75
2021/11/14 08:28:31;;;;;;;;;;;7.80;99.90;;;;;;4999774;28;20000;-75
2021/11/14 08:30:57;;;;;;;;;;;7.80;99.90;;;;;;4999654;28;20392;-75
2021/11/14 08:33:23;;;;;;;;;;;7.80;99.90;;;;;;4999745;28;20667;-74
2021/11/14 08:35:48;;;;;;;;;;;7.80;99.90;;;;;;5000307;28;19914;-75
2021/11/14 08:38:14;;;;;;;;;;;7.90;99.90;;;;;;4998199;28;19959;-74
2021/11/14 08:40:39;;;;;;;;;;;7.90;99.90;;;;;;4998849;28;20428;-75
2021/11/14 08:43:06;;;;;;;;;;;8.00;99.90;;;;;;4999821;28;19910;-75
2021/11/14 08:45:32;;;;;;;;;;;8.00;99.90;;;;;;4998829;28;19972;-74
2021/11/14 08:47:57;;;;;;;;;;;7.90;99.90;;;;;;4999929;28;19913;-74
2021/11/14 08:50:24;;;;;;;;;;;7.90;99.90;;;;;;4998692;28;19918;-74
2021/11/14 08:52:49;;;;;;;;;;;7.90;99.90;;;;;;4998223;28;19924;-75
2021/11/14 08:55:16;;;;;;;;;;;7.90;99.90;;;;;;4997835;28;19914;-75
2021/11/14 08:57:42;;;;;;;;;;;8.00;99.90;;;;;;4982419;28;19909;-75
2021/11/14 09:00:08;;;;;;;;;;;8.00;99.90;;;;;;4999968;28;19918;-75
2021/11/14 09:02:34;;;;;;;;;;;8.00;99.90;;;;;;4981026;28;19917;-74
2021/11/14 09:04:59;;;;;;;;;;;7.90;99.90;;;;;;5000022;28;19921;-74
2021/11/14 09:07:25;;;;;;;;;;;7.80;99.90;;;;;;4999173;28;19921;-75
2021/11/14 09:09:50;;;;;;;;;;;7.80;99.90;;;;;;4999025;28;19913;-75
2021/11/14 09:12:15;;;;;;;;;;;7.80;99.90;;;;;;4997665;28;20029;-75
2021/11/14 09:14:42;;;;;;;;;;;7.90;99.90;;;;;;4999755;28;19922;-75
2021/11/14 09:17:07;;;;;;;;;;;7.90;99.90;;;;;;4997978;28;20325;-74
2021/11/14 09:19:33;;;;;;;;;;;7.90;99.90;;;;;;4980818;28;20008;-75
2021/11/14 09:21:58;;;;;;;;;;;8.00;99.90;;;;;;4998687;28;20278;-75
2021/11/14 09:24:24;;;;;;;;;;;8.00;99.90;;;;;;5000894;28;20000;-75
2021/11/14 09:26:49;;;;;;;;;;;8.00;99.90;;;;;;4984855;28;19957;-75
2021/11/14 09:29:15;;;;;;;;;;;7.90;99.90;;;;;;5003667;28;19917;-75
2021/11/14 09:31:41;;;;;;;;;;;7.90;99.90;;;;;;5003371;28;19948;-75
2021/11/14 09:34:07;;;;;;;;;;;8.00;99.90;;;;;;5002448;28;19918;-75
2021/11/14 09:36:34;;;;;;;;;;;7.90;99.90;;;;;;5002748;28;19916;-75
2021/11/14 09:39:10;;;;;;;;;;;7.90;99.90;;;;;;5003347;28;20384;-75
2021/11/14 09:41:39;;;;;;;;;;;7.90;99.90;;;;;;5003527;28;19916;-75
2021/11/14 09:44:04;;;;;;;;;;;8.00;99.90;;;;;;5002165;28;20383;-75
2021/11/14 09:46:30;;;;;;;;;;;8.00;99.90;;;;;;5002701;28;19914;-75
2021/11/14 09:48:57;;;;;;;;;;;8.00;99.90;;;;;;4985420;28;20376;-75
2021/11/14 09:51:23;;;;;;;;;;;7.90;99.90;;;;;;5002552;28;19983;-75
2021/11/14 09:53:48;;;;;;;;;;;8.00;99.90;;;;;;5003287;28;20384;-75
2021/11/14 09:56:13;;;;;;;;;;;8.00;99.90;;;;;;5002334;28;19975;-75
2021/11/14 09:58:40;;;;;;;;;;;8.00;99.90;;;;;;5000219;28;19925;-75
2021/11/14 10:01:06;;;;;;;;;;;8.00;99.90;;;;;;4985710;28;19949;-75
2021/11/14 10:03:32;;;;;;;;;;;8.00;99.90;;;;;;5002958;28;19960;-75
2021/11/14 10:05:58;;;;;;;;;;;8.00;99.90;;;;;;5002865;28;19922;-75
2021/11/14 10:08:24;;;;;;;;;;;8.10;99.90;;;;;;5002905;28;20067;-75
2021/11/14 10:10:54;;;;;;;;;;;8.10;99.90;;;;;;4984549;28;19961;-75
2021/11/14 10:13:25;;;;;;;;;;;8.10;99.90;;;;;;5002650;28;20369;-75
2021/11/14 10:15:56;;;;;;;;;;;8.20;99.90;;;;;;5001586;28;19924;-75
2021/11/14 10:18:22;;;;;;;;;;;8.20;99.90;;;;;;4986208;28;19918;-75
2021/11/14 10:20:51;;;;;;;;;;;8.20;99.90;;;;;;5003241;28;20013;-75
2021/11/14 10:23:17;;;;;;;;;;;8.20;99.90;;;;;;5003025;28;19909;-75
2021/11/14 10:25:43;;;;;;;;;;;8.20;99.90;;;;;;5001948;28;19922;-75
2021/11/14 10:28:09;;;;;;;;;;;8.20;99.90;;;;;;5002575;28;19909;-75
2021/11/14 10:30:39;;;;;;;;;;;8.10;99.90;;;;;;5002930;28;20222;-75
2021/11/14 10:33:06;;;;;;;;;;;8.20;99.90;;;;;;5000270;28;19992;-75
2021/11/14 10:35:32;;;;;;;;;;;8.20;99.90;;;;;;5001874;28;20436;-75
2021/11/14 10:37:59;;;;;;;;;;;8.30;99.90;;;;;;5002990;28;19966;-75
2021/11/14 10:40:26;;;;;;;;;;;8.30;99.90;;;;;;5002526;28;19917;-75
2021/11/14 10:42:53;;;;;;;;;;;8.30;99.90;;;;;;5002217;28;19909;-75
2021/11/14 10:45:22;;;;;;;;;;;8.30;99.90;;;;;;5001118;28;19918;-74
2021/11/14 10:47:55;;;;;;;;;;;8.30;99.90;;;;;;5018076;28;20313;-75
2021/11/14 10:50:21;;;;;;;;;;;8.30;99.90;;;;;;5000349;28;19917;-75
2021/11/14 10:53:05;;;;;;;;;;;8.40;99.90;;;;;;5002054;28;20301;-74
2021/11/14 10:55:36;;;;;;;;;;;8.30;99.90;;;;;;5001271;28;19958;-74
2021/11/14 10:58:02;;;;;;;;;;;8.30;99.90;;;;;;5001975;28;19996;-74
2021/11/14 11:00:28;;;;;;;;;;;8.30;99.90;;;;;;5000352;28;20476;-75
2021/11/14 11:02:53;;;;;;;;;;;8.30;99.90;;;;;;5001590;28;20360;-75
2021/11/14 11:05:20;;;;;;;;;;;8.30;99.90;;;;;;5000331;28;19918;-74
2021/11/14 11:07:58;;;;;;;;;;;8.30;99.90;;;;;;5001877;28;19917;-75
2021/11/14 11:10:32;;;;;;;;;;;8.30;99.90;;;;;;5001451;28;19913;-75
2021/11/14 11:12:59;;;;;;;;;;;8.30;99.90;;;;;;5000726;28;19964;-75
2021/11/14 11:15:25;;;;;;;;;;;8.30;99.90;;;;;;5001199;28;19922;-75
2021/11/14 11:17:51;;;;;;;;;;;8.30;99.90;;;;;;5000813;28;20284;-75
2021/11/14 11:20:18;;;;;;;;;;;8.20;99.90;;;;;;5002196;28;19917;-75
2021/11/14 11:22:48;;;;;;;;;;;8.20;99.90;;;;;;4999113;28;19914;-75
2021/11/14 11:25:14;;;;;;;;;;;8.20;99.90;;;;;;5000855;28;19926;-75
2021/11/14 11:27:39;;;;;;;;;;;8.20;99.90;;;;;;5001689;28;19910;-75
2021/11/14 11:30:05;;;;;;;;;;;8.10;99.90;;;;;;5001346;28;19918;-75
2021/11/14 11:32:30;;;;;;;;;;;8.10;99.90;;;;;;5003631;28;20040;-75
2021/11/14 11:34:57;;;;;;;;;;;8.10;99.90;;;;;;5004291;28;19914;-75
2021/11/14 11:37:23;;;;;;;;;;;8.20;99.90;;;;;;5005474;28;20325;-75
2021/11/14 11:39:48;;;;;;;;;;;8.10;99.90;;;;;;5003756;28;20019;-75
2021/11/14 11:42:13;;;;;;;;;;;8.10;99.90;;;;;;5000712;28;19913;-74
2021/11/14 11:44:39;;;;;;;;;;;8.10;99.90;;;;;;5000969;28;20357;-75
2021/11/14 11:47:08;;;;;;;;;;;8.10;99.90;;;;;;5001155;28;20008;-74
2021/11/14 11:49:34;;;;;;;;;;;8.10;99.90;;;;;;5001223;28;20575;-73
2021/11/14 11:52:02;;;;;;;;;;;8.10;99.90;;;;;;5000578;28;19921;-73
2021/11/14 11:54:31;;;;;;;;;;;8.10;99.90;;;;;;5000577;28;19949;-73
2021/11/14 11:56:56;;;;;;;;;;;8.10;99.90;;;;;;4997920;28;19928;-74
2021/11/14 11:59:24;;;;;;;;;;;8.10;99.90;;;;;;5000788;28;20367;-73
2021/11/14 12:02:10;;;;;;;;;;;8.10;99.90;;;;;;4983920;28;19909;-74
2021/11/14 12:04:47;;;;;;;;;;;8.10;99.90;;;;;;5000753;28;19917;-73
2021/11/14 12:07:13;;;;;;;;;;;8.10;99.90;;;;;;4999759;28;19922;-74
2021/11/14 12:09:40;;;;;;;;;;;8.10;99.90;;;;;;5000639;28;19917;-74
2021/11/14 12:12:17;;;;;;;;;;;8.10;99.90;;;;;;4999221;28;19960;-74
2021/11/14 12:17:13;;;;;;;;;;;8.00;99.90;;;;;;5029967;28;19925;-75
2021/11/14 12:19:40;;;;;;;;;;;8.00;99.90;;;;;;5027142;28;19913;-75
2021/11/14 12:22:07;;;;;;;;;;;8.00;99.90;;;;;;5031994;28;19913;-76
2021/11/14 12:24:46;;;;;;;;;;;8.00;99.90;;;;;;5030092;28;20421;-75
2021/11/14 12:27:22;;;;;;;;;;;8.10;99.90;;;;;;5010700;28;19921;-75
2021/11/14 12:29:55;;;;;;;;;;;8.10;99.90;;;;;;5010016;28;19913;-76
2021/11/14 12:32:28;;;;;;;;;;;8.10;99.90;;;;;;5010820;28;19913;-76
2021/11/14 12:34:59;;;;;;;;;;;8.10;99.90;;;;;;5010495;28;19963;-76
2021/11/14 12:37:25;;;;;;;;;;;8.10;99.90;;;;;;5011359;28;19914;-76
2021/11/14 12:39:50;;;;;;;;;;;8.20;99.90;;;;;;5010514;28;19910;-75
2021/11/14 12:42:17;;;;;;;;;;;8.20;99.90;;;;;;5010307;28;19949;-76
2021/11/14 12:44:53;;;;;;;;;;;8.20;99.90;;;;;;5009990;28;19917;-76
2021/11/14 12:47:22;;;;;;;;;;;8.20;99.90;;;;;;5009385;28;19915;-76
2021/11/14 12:49:48;;;;;;;;;;;8.20;99.90;;;;;;5009552;28;20009;-76
2021/11/14 12:52:28;;;;;;;;;;;8.20;99.90;;;;;;5009382;28;19932;-76
2021/11/14 12:54:54;;;;;;;;;;;8.20;99.90;;;;;;5010117;28;19909;-76
2021/11/14 12:57:20;;;;;;;;;;;8.10;99.90;;;;;;5008498;28;20505;-76
2021/11/14 12:59:46;;;;;;;;;;;8.10;99.90;;;;;;5010259;28;19952;-76
2021/11/14 13:02:18;;;;;;;;;;;8.20;99.90;;;;;;5008041;28;19913;-76
2021/11/14 13:04:43;;;;;;;;;;;8.20;99.90;;;;;;5009913;28;19916;-76
2021/11/14 13:07:23;;;;;;;;;;;8.10;99.90;;;;;;5009822;28;19913;-76
2021/11/14 13:09:49;;;;;;;;;;;8.20;99.90;;;;;;5010227;28;19992;-76
2021/11/14 13:12:21;;;;;;;;;;;8.20;99.90;;;;;;5009708;28;20337;-76
2021/11/14 13:15:05;;;;;;;;;;;8.20;99.90;;;;;;5010263;28;19960;-76
2021/11/14 13:17:30;;;;;;;;;;;8.20;99.90;;;;;;5010774;28;20458;-76
2021/11/14 13:19:56;;;;;;;;;;;8.20;99.90;;;;;;5008481;28;20008;-76
2021/11/14 13:22:21;;;;;;;;;;;8.20;99.90;;;;;;5009740;28;19917;-76
2021/11/14 13:24:54;;;;;;;;;;;8.20;99.90;;;;;;5009836;28;20000;-76
2021/11/14 13:27:20;;;;;;;;;;;8.20;99.90;;;;;;5010202;28;19909;-76
2021/11/14 13:29:47;;;;;;;;;;;8.20;99.90;;;;;;5009951;28;20313;-76
2021/11/14 13:32:20;;;;;;;;;;;8.30;99.90;;;;;;5008212;28;19965;-76
2021/11/14 13:34:48;;;;;;;;;;;8.30;99.90;;;;;;5008706;28;19959;-76
2021/11/14 13:37:13;;;;;;;;;;;8.30;99.90;;;;;;5007702;28;20015;-76
2021/11/14 13:40:00;;;;;;;;;;;8.20;99.90;;;;;;5011276;28;20004;-76
2021/11/14 13:42:30;;;;;;;;;;;8.10;99.90;;;;;;5008903;28;20376;-76
2021/11/14 13:45:15;;;;;;;;;;;8.10;99.90;;;;;;5009357;28;19933;-76
2021/11/14 13:47:44;;;;;;;;;;;8.20;99.90;;;;;;5008889;28;20369;-76
2021/11/14 13:50:23;;;;;;;;;;;8.10;99.90;;;;;;5010014;28;19916;-76
2021/11/14 13:52:53;;;;;;;;;;;8.20;99.90;;;;;;5009025;28;19920;-76
2021/11/14 13:55:18;;;;;;;;;;;8.20;99.90;;;;;;5009356;28;20014;-76
2021/11/14 13:57:46;;;;;;;;;;;8.20;99.90;;;;;;5009265;28;20004;-76
2021/11/14 14:00:23;;;;;;;;;;;8.20;99.90;;;;;;5009425;28;19913;-76
2021/11/14 14:02:48;;;;;;;;;;;8.20;99.90;;;;;;5008876;28;19925;-76
2021/11/14 14:05:14;;;;;;;;;;;8.20;99.90;;;;;;5009613;28;20296;-76
2021/11/14 14:07:41;;;;;;;;;;;8.20;99.90;;;;;;5008762;28;19917;-75
2021/11/14 14:10:09;;;;;;;;;;;8.20;99.90;;;;;;5009005;28;19909;-75
2021/11/14 14:12:55;;;;;;;;;;;8.20;99.90;;;;;;5012523;28;19917;-75
2021/11/14 14:15:28;;;;;;;;;;;8.20;99.90;;;;;;5012332;28;20295;-75
2021/11/14 14:17:54;;;;;;;;;;;8.30;99.90;;;;;;5012612;28;19909;-76
2021/11/14 14:20:20;;;;;;;;;;;8.30;99.90;;;;;;5012524;28;19920;-76
2021/11/14 14:22:47;;;;;;;;;;;8.30;99.90;;;;;;5012266;28;19913;-76
2021/11/14 14:25:14;;;;;;;;;;;8.20;99.90;;;;;;5010798;28;19918;-76
2021/11/14 14:27:41;;;;;;;;;;;8.20;99.90;;;;;;5012221;28;20398;-76
2021/11/14 14:30:08;;;;;;;;;;;8.10;99.90;;;;;;5011523;28;19926;-76
2021/11/14 14:32:34;;;;;;;;;;;8.10;99.90;;;;;;5011873;28;19917;-76